sensor_id;sensor_type;location;lat;lon;timestamp;temperature;humidity
31133;DHT22;17779;50.942;4.026;2023-04-10T00:02:09;12.00;99.90
31133;DHT22;17779;50.942;4.026;2023-04-10T00:04:35;12.00;99.90
31133;DHT22;17779;50.942;4.026;2023-04-10T00:07:00;12.00;99.90
31133;DHT22;17779;50.942;4.026;2023-04-10T00:09:26;11.90;99.90
31133;DHT22;17779;50.942;4.026;2023-04-10T00:11:53;11.90;99.90
31133;DHT22;17779;50.942;4.026;2023-04-10T00:14:19;11.90;99.90
31133;DHT22;17779;50.942;4.026;2023-04-10T00:16:48;11.80;99.90
31133;DHT22;17779;50.942;4.026;2023-04-10T00:19:14;11.70;99.90
31133;DHT22;17779;50.942;4.026;2023-04-10T00:21:40;11.70;99.90
31133;DHT22;17779;50.942;4.026;2023-04-10T00:24:06;11.70;99.90
31133;DHT22;17779;50.942;4.026;2023-04-10T00:26:31;11.70;99.90
31133;DHT22;17779;50.942;4.026;2023-04-10T00:28:57;11.70;99.90
31133;DHT22;17779;50.942;4.026;2023-04-10T00:31:23;11.70;99.90
31133;DHT22;17779;50.942;4.026;2023-04-10T00:33:50;11.80;99.90
31133;DHT22;17779;50.942;4.026;2023-04-10T00:36:18;11.80;99.90
31133;DHT22;17779;50.942;4.026;2023-04-10T00:38:43;11.70;99.90
31133;DHT22;17779;50.942;4.026;2023-04-10T00:41:09;11.50;99.90
31133;DHT22;17779;50.942;4.026;2023-04-10T00:43:35;11.40;99.90
31133;DHT22;17779;50.942;4.026;2023-04-10T00:46:01;11.60;99.90
31133;DHT22;17779;50.942;4.026;2023-04-10T00:48:27;11.80;99.90
31133;DHT22;17779;50.942;4.026;2023-04-10T00:50:53;11.60;99.90
31133;DHT22;17779;50.942;4.026;2023-04-10T00:53:19;11.60;99.90
31133;DHT22;17779;50.942;4.026;2023-04-10T00:55:47;11.60;99.90
31133;DHT22;17779;50.942;4.026;2023-04-10T00:58:14;11.50;99.90
31133;DHT22;17779;50.942;4.026;2023-04-10T01:00:40;11.50;99.90
31133;DHT22;17779;50.942;4.026;2023-04-10T01:03:10;11.40;99.90
31133;DHT22;17779;50.942;4.026;2023-04-10T01:05:50;11.40;99.90
31133;DHT22;17779;50.942;4.026;2023-04-10T01:17:04;11.40;99.90
31133;DHT22;17779;50.942;4.026;2023-04-10T01:19:56;11.50;99.90
31133;DHT22;17779;50.942;4.026;2023-04-10T01:22:32;11.50;99.90
31133;DHT22;17779;50.942;4.026;2023-04-10T01:30:20;11.30;99.90
31133;DHT22;17779;50.942;4.026;2023-04-10T01:32:47;11.20;99.90
31133;DHT22;17779;50.942;4.026;2023-04-10T01:35:14;11.20;99.90
31133;DHT22;17779;50.942;4.026;2023-04-10T01:37:41;11.30;99.90
31133;DHT22;17779;50.942;4.026;2023-04-10T01:40:11;11.30;99.90
31133;DHT22;17779;50.942;4.026;2023-04-10T01:42:43;11.20;99.90
31133;DHT22;17779;50.942;4.026;2023-04-10T01:45:16;11.20;99.90
31133;DHT22;17779;50.942;4.026;2023-04-10T01:47:42;11.20;99.90
31133;DHT22;17779;50.942;4.026;2023-04-10T01:50:09;11.20;99.90
31133;DHT22;17779;50.942;4.026;2023-04-10T01:52:36;11.10;99.90
31133;DHT22;17779;50.942;4.026;2023-04-10T01:55:03;11.00;99.90
31133;DHT22;17779;50.942;4.026;2023-04-10T01:57:31;11.00;99.90
31133;DHT22;17779;50.942;4.026;2023-04-10T01:59:57;11.00;99.90
31133;DHT22;17779;50.942;4.026;2023-04-10T02:02:22;11.00;99.90
31133;DHT22;17779;50.942;4.026;2023-04-10T02:04:48;11.10;99.90
31133;DHT22;17779;50.942;4.026;2023-04-10T02:07:28;10.90;99.90
31133;DHT22;17779;50.942;4.026;2023-04-10T02:09:59;10.90;99.90
31133;DHT22;17779;50.942;4.026;2023-04-10T02:12:29;10.90;99.90
31133;DHT22;17779;50.942;4.026;2023-04-10T02:14:58;10.90;99.90
31133;DHT22;17779;50.942;4.026;2023-04-10T02:17:28;11.00;99.90
31133;DHT22;17779;50.942;4.026;2023-04-10T02:19:56;10.90;99.90
31133;DHT22;17779;50.942;4.026;2023-04-10T02:22:23;10.90;99.90
31133;DHT22;17779;50.942;4.026;2023-04-10T02:24:50;10.90;99.90
31133;DHT22;17779;50.942;4.026;2023-04-10T02:27:29;11.00;99.90
31133;DHT22;17779;50.942;4.026;2023-04-10T02:29:55;11.00;99.90
31133;DHT22;17779;50.942;4.026;2023-04-10T02:32:22;10.90;99.90
31133;DHT22;17779;50.942;4.026;2023-04-10T02:34:47;10.90;99.90
31133;DHT22;17779;50.942;4.026;2023-04-10T02:37:13;10.80;99.90
31133;DHT22;17779;50.942;4.026;2023-04-10T02:39:39;10.90;99.90
31133;DHT22;17779;50.942;4.026;2023-04-10T02:42:04;10.70;99.90
31133;DHT22;17779;50.942;4.026;2023-04-10T02:44:30;10.70;99.90
31133;DHT22;17779;50.942;4.026;2023-04-10T02:46:56;10.70;99.90
31133;DHT22;17779;50.942;4.026;2023-04-10T02:49:22;10.80;99.90
31133;DHT22;17779;50.942;4.026;2023-04-10T02:51:47;10.80;99.90
31133;DHT22;17779;50.942;4.026;2023-04-10T02:54:13;10.90;99.90
31133;DHT22;17779;50.942;4.026;2023-04-10T02:56:39;10.80;99.90
31133;DHT22;17779;50.942;4.026;2023-04-10T02:59:04;10.70;99.90
31133;DHT22;17779;50.942;4.026;2023-04-10T03:01:30;10.70;99.90
31133;DHT22;17779;50.942;4.026;2023-04-10T03:03:56;10.70;99.90
31133;DHT22;17779;50.942;4.026;2023-04-10T03:06:22;10.70;99.90
31133;DHT22;17779;50.942;4.026;2023-04-10T03:08:51;10.60;99.90
31133;DHT22;17779;50.942;4.026;2023-04-10T03:11:17;10.60;99.90
31133;DHT22;17779;50.942;4.026;2023-04-10T03:13:43;10.60;99.90
31133;DHT22;17779;50.942;4.026;2023-04-10T03:16:09;10.60;99.90
31133;DHT22;17779;50.942;4.026;2023-04-10T03:18:34;10.60;99.90
31133;DHT22;17779;50.942;4.026;2023-04-10T03:21:00;10.70;99.90
31133;DHT22;17779;50.942;4.026;2023-04-10T03:23:28;10.70;99.90
31133;DHT22;17779;50.942;4.026;2023-04-10T03:25:54;10.60;99.90
31133;DHT22;17779;50.942;4.026;2023-04-10T03:28:21;10.70;99.90
31133;DHT22;17779;50.942;4.026;2023-04-10T03:30:47;10.70;99.90
31133;DHT22;17779;50.942;4.026;2023-04-10T03:33:12;10.70;99.90
31133;DHT22;17779;50.942;4.026;2023-04-10T03:35:38;10.60;99.90
31133;DHT22;17779;50.942;4.026;2023-04-10T03:38:04;10.50;99.90
31133;DHT22;17779;50.942;4.026;2023-04-10T03:40:29;10.50;99.90
31133;DHT22;17779;50.942;4.026;2023-04-10T03:42:55;10.40;99.90
31133;DHT22;17779;50.942;4.026;2023-04-10T03:45:21;10.50;99.90
31133;DHT22;17779;50.942;4.026;2023-04-10T03:47:47;10.40;99.90
31133;DHT22;17779;50.942;4.026;2023-04-10T03:50:12;10.50;99.90
31133;DHT22;17779;50.942;4.026;2023-04-10T03:52:38;10.40;99.90
31133;DHT22;17779;50.942;4.026;2023-04-10T03:55:04;10.40;99.90
31133;DHT22;17779;50.942;4.026;2023-04-10T03:57:30;10.30;99.90
31133;DHT22;17779;50.942;4.026;2023-04-10T03:59:56;10.30;99.90
31133;DHT22;17779;50.942;4.026;2023-04-10T04:02:22;10.40;99.90
31133;DHT22;17779;50.942;4.026;2023-04-10T04:04:47;10.30;99.90
31133;DHT22;17779;50.942;4.026;2023-04-10T04:07:13;10.40;99.90
31133;DHT22;17779;50.942;4.026;2023-04-10T04:09:39;10.30;99.90
31133;DHT22;17779;50.942;4.026;2023-04-10T04:12:05;10.30;99.90
31133;DHT22;17779;50.942;4.026;2023-04-10T04:14:32;10.30;99.90
31133;DHT22;17779;50.942;4.026;2023-04-10T04:16:57;10.40;99.90
31133;DHT22;17779;50.942;4.026;2023-04-10T04:19:23;10.40;99.90
31133;DHT22;17779;50.942;4.026;2023-04-10T04:21:49;10.30;99.90
31133;DHT22;17779;50.942;4.026;2023-04-10T04:24:15;10.30;99.90
31133;DHT22;17779;50.942;4.026;2023-04-10T04:26:40;10.20;99.90
31133;DHT22;17779;50.942;4.026;2023-04-10T04:29:06;10.30;99.90
31133;DHT22;17779;50.942;4.026;2023-04-10T04:31:32;10.30;99.90
31133;DHT22;17779;50.942;4.026;2023-04-10T04:33:58;10.30;99.90
31133;DHT22;17779;50.942;4.026;2023-04-10T04:36:26;10.30;99.90
31133;DHT22;17779;50.942;4.026;2023-04-10T04:38:53;10.20;99.90
31133;DHT22;17779;50.942;4.026;2023-04-10T04:41:18;10.10;99.90
31133;DHT22;17779;50.942;4.026;2023-04-10T04:43:44;10.10;99.90
31133;DHT22;17779;50.942;4.026;2023-04-10T04:46:12;10.10;99.90
31133;DHT22;17779;50.942;4.026;2023-04-10T04:48:37;10.30;99.90
31133;DHT22;17779;50.942;4.026;2023-04-10T04:51:05;10.30;99.90
31133;DHT22;17779;50.942;4.026;2023-04-10T04:53:31;10.20;99.90
31133;DHT22;17779;50.942;4.026;2023-04-10T04:55:57;10.20;99.90
31133;DHT22;17779;50.942;4.026;2023-04-10T04:58:23;10.10;99.90
31133;DHT22;17779;50.942;4.026;2023-04-10T05:00:50;10.10;99.90
31133;DHT22;17779;50.942;4.026;2023-04-10T05:03:16;10.10;99.90
31133;DHT22;17779;50.942;4.026;2023-04-10T05:05:42;10.30;99.90
31133;DHT22;17779;50.942;4.026;2023-04-10T05:08:08;10.20;99.90
31133;DHT22;17779;50.942;4.026;2023-04-10T05:10:33;10.20;99.90
31133;DHT22;17779;50.942;4.026;2023-04-10T05:12:59;10.20;99.90
31133;DHT22;17779;50.942;4.026;2023-04-10T05:15:25;10.30;99.90
31133;DHT22;17779;50.942;4.026;2023-04-10T05:17:51;10.30;99.90
31133;DHT22;17779;50.942;4.026;2023-04-10T05:20:17;10.40;99.90
31133;DHT22;17779;50.942;4.026;2023-04-10T05:22:43;10.40;99.90
31133;DHT22;17779;50.942;4.026;2023-04-10T05:25:09;10.30;99.90
31133;DHT22;17779;50.942;4.026;2023-04-10T05:27:42;10.30;99.90
31133;DHT22;17779;50.942;4.026;2023-04-10T05:30:08;10.40;99.90
31133;DHT22;17779;50.942;4.026;2023-04-10T05:32:34;10.40;99.90
31133;DHT22;17779;50.942;4.026;2023-04-10T05:34:59;10.50;99.90
31133;DHT22;17779;50.942;4.026;2023-04-10T05:37:25;10.50;99.90
31133;DHT22;17779;50.942;4.026;2023-04-10T05:39:51;10.60;99.90
31133;DHT22;17779;50.942;4.026;2023-04-10T05:42:16;10.70;99.90
31133;DHT22;17779;50.942;4.026;2023-04-10T05:44:43;10.60;99.90
31133;DHT22;17779;50.942;4.026;2023-04-10T05:47:09;10.60;99.90
31133;DHT22;17779;50.942;4.026;2023-04-10T05:49:35;10.50;99.90
31133;DHT22;17779;50.942;4.026;2023-04-10T05:52:01;10.60;99.90
31133;DHT22;17779;50.942;4.026;2023-04-10T05:54:26;10.60;99.90
31133;DHT22;17779;50.942;4.026;2023-04-10T05:56:53;10.60;99.90
31133;DHT22;17779;50.942;4.026;2023-04-10T05:59:18;10.60;99.90
31133;DHT22;17779;50.942;4.026;2023-04-10T06:01:44;10.60;99.90
31133;DHT22;17779;50.942;4.026;2023-04-10T06:04:11;10.60;99.90
31133;DHT22;17779;50.942;4.026;2023-04-10T06:06:38;10.50;99.90
31133;DHT22;17779;50.942;4.026;2023-04-10T06:09:03;10.60;99.90
31133;DHT22;17779;50.942;4.026;2023-04-10T06:11:29;10.60;99.90
31133;DHT22;17779;50.942;4.026;2023-04-10T06:13:55;10.70;99.90
31133;DHT22;17779;50.942;4.026;2023-04-10T06:16:21;10.70;99.90
31133;DHT22;17779;50.942;4.026;2023-04-10T06:18:46;10.70;99.90
31133;DHT22;17779;50.942;4.026;2023-04-10T06:21:13;10.80;99.90
31133;DHT22;17779;50.942;4.026;2023-04-10T06:23:39;10.70;99.90
31133;DHT22;17779;50.942;4.026;2023-04-10T06:26:06;10.70;99.90
31133;DHT22;17779;50.942;4.026;2023-04-10T06:28:32;10.80;99.90
31133;DHT22;17779;50.942;4.026;2023-04-10T06:30:57;10.70;99.90
31133;DHT22;17779;50.942;4.026;2023-04-10T06:33:23;10.80;99.90
31133;DHT22;17779;50.942;4.026;2023-04-10T06:35:49;10.80;99.90
31133;DHT22;17779;50.942;4.026;2023-04-10T06:38:17;10.80;99.90
31133;DHT22;17779;50.942;4.026;2023-04-10T06:40:42;10.90;99.90
31133;DHT22;17779;50.942;4.026;2023-04-10T06:43:08;10.90;99.90
31133;DHT22;17779;50.942;4.026;2023-04-10T06:45:34;10.70;99.90
31133;DHT22;17779;50.942;4.026;2023-04-10T06:48:00;10.80;99.90
31133;DHT22;17779;50.942;4.026;2023-04-10T06:50:25;10.90;99.90
31133;DHT22;17779;50.942;4.026;2023-04-10T06:52:51;11.00;99.90
31133;DHT22;17779;50.942;4.026;2023-04-10T06:55:20;11.10;99.90
31133;DHT22;17779;50.942;4.026;2023-04-10T06:57:46;11.10;99.90
31133;DHT22;17779;50.942;4.026;2023-04-10T07:00:12;11.30;99.90
31133;DHT22;17779;50.942;4.026;2023-04-10T07:02:37;11.30;99.90
31133;DHT22;17779;50.942;4.026;2023-04-10T07:05:03;11.40;99.90
31133;DHT22;17779;50.942;4.026;2023-04-10T07:07:29;11.40;99.90
31133;DHT22;17779;50.942;4.026;2023-04-10T07:09:55;11.60;99.90
31133;DHT22;17779;50.942;4.026;2023-04-10T07:12:22;11.50;99.90
31133;DHT22;17779;50.942;4.026;2023-04-10T07:14:48;11.70;99.90
31133;DHT22;17779;50.942;4.026;2023-04-10T07:17:14;11.70;99.90
31133;DHT22;17779;50.942;4.026;2023-04-10T07:19:40;11.70;99.90
31133;DHT22;17779;50.942;4.026;2023-04-10T07:22:06;11.70;99.90
31133;DHT22;17779;50.942;4.026;2023-04-10T07:24:32;11.80;99.90
31133;DHT22;17779;50.942;4.026;2023-04-10T07:26:58;11.70;99.90
31133;DHT22;17779;50.942;4.026;2023-04-10T07:29:25;11.80;99.90
31133;DHT22;17779;50.942;4.026;2023-04-10T07:31:50;11.90;99.90
31133;DHT22;17779;50.942;4.026;2023-04-10T07:34:16;12.00;99.90
31133;DHT22;17779;50.942;4.026;2023-04-10T07:36:42;11.90;99.90
31133;DHT22;17779;50.942;4.026;2023-04-10T07:39:08;11.90;99.90
31133;DHT22;17779;50.942;4.026;2023-04-10T07:41:34;11.90;99.90
31133;DHT22;17779;50.942;4.026;2023-04-10T07:44:00;11.90;99.90
31133;DHT22;17779;50.942;4.026;2023-04-10T07:46:26;12.00;99.90
31133;DHT22;17779;50.942;4.026;2023-04-10T07:48:52;12.10;99.90
31133;DHT22;17779;50.942;4.026;2023-04-10T07:51:20;12.30;99.90
31133;DHT22;17779;50.942;4.026;2023-04-10T07:53:46;12.50;99.90
31133;DHT22;17779;50.942;4.026;2023-04-10T07:56:16;12.60;99.90
31133;DHT22;17779;50.942;4.026;2023-04-10T07:58:42;12.60;99.90
31133;DHT22;17779;50.942;4.026;2023-04-10T08:01:08;12.80;99.90
31133;DHT22;17779;50.942;4.026;2023-04-10T08:03:39;12.60;99.90
31133;DHT22;17779;50.942;4.026;2023-04-10T08:06:07;12.70;99.90
31133;DHT22;17779;50.942;4.026;2023-04-10T08:08:35;12.70;99.90
31133;DHT22;17779;50.942;4.026;2023-04-10T08:11:01;12.70;99.90
31133;DHT22;17779;50.942;4.026;2023-04-10T08:13:27;12.60;99.90
31133;DHT22;17779;50.942;4.026;2023-04-10T08:15:53;12.70;99.90
31133;DHT22;17779;50.942;4.026;2023-04-10T08:18:18;12.90;99.90
31133;DHT22;17779;50.942;4.026;2023-04-10T08:20:44;12.90;99.90
31133;DHT22;17779;50.942;4.026;2023-04-10T08:23:10;13.00;99.90
31133;DHT22;17779;50.942;4.026;2023-04-10T08:25:36;13.00;99.90
31133;DHT22;17779;50.942;4.026;2023-04-10T08:28:01;13.00;99.90
31133;DHT22;17779;50.942;4.026;2023-04-10T08:30:27;13.20;99.90
31133;DHT22;17779;50.942;4.026;2023-04-10T08:32:53;13.30;99.90
31133;DHT22;17779;50.942;4.026;2023-04-10T08:35:19;13.40;99.90
31133;DHT22;17779;50.942;4.026;2023-04-10T08:37:44;13.50;99.90
31133;DHT22;17779;50.942;4.026;2023-04-10T08:40:10;13.10;99.90
31133;DHT22;17779;50.942;4.026;2023-04-10T08:42:36;13.20;99.90
31133;DHT22;17779;50.942;4.026;2023-04-10T08:45:03;13.20;99.90
31133;DHT22;17779;50.942;4.026;2023-04-10T08:47:28;13.30;99.90
31133;DHT22;17779;50.942;4.026;2023-04-10T08:49:56;13.50;99.90
31133;DHT22;17779;50.942;4.026;2023-04-10T08:52:24;13.50;99.90
31133;DHT22;17779;50.942;4.026;2023-04-10T08:54:53;13.50;99.90
31133;DHT22;17779;50.942;4.026;2023-04-10T08:57:21;13.50;99.90
31133;DHT22;17779;50.942;4.026;2023-04-10T08:59:48;13.70;99.90
31133;DHT22;17779;50.942;4.026;2023-04-10T09:02:14;13.90;99.90
31133;DHT22;17779;50.942;4.026;2023-04-10T09:04:45;14.00;99.90
31133;DHT22;17779;50.942;4.026;2023-04-10T09:07:11;14.00;99.90
31133;DHT22;17779;50.942;4.026;2023-04-10T09:09:37;13.90;99.90
31133;DHT22;17779;50.942;4.026;2023-04-10T09:12:03;14.00;99.90
31133;DHT22;17779;50.942;4.026;2023-04-10T09:14:32;14.00;99.90
31133;DHT22;17779;50.942;4.026;2023-04-10T09:19:45;14.40;99.90
31133;DHT22;17779;50.942;4.026;2023-04-10T09:22:12;14.30;99.90
31133;DHT22;17779;50.942;4.026;2023-04-10T09:24:41;14.40;99.90
31133;DHT22;17779;50.942;4.026;2023-04-10T09:27:08;14.40;99.90
31133;DHT22;17779;50.942;4.026;2023-04-10T09:29:46;14.50;99.90
31133;DHT22;17779;50.942;4.026;2023-04-10T09:32:44;14.50;99.90
31133;DHT22;17779;50.942;4.026;2023-04-10T09:35:12;14.40;99.90
31133;DHT22;17779;50.942;4.026;2023-04-10T09:37:39;14.40;99.90
31133;DHT22;17779;50.942;4.026;2023-04-10T09:40:22;14.60;99.90
31133;DHT22;17779;50.942;4.026;2023-04-10T09:42:48;14.60;99.90
31133;DHT22;17779;50.942;4.026;2023-04-10T09:45:14;14.60;99.90
31133;DHT22;17779;50.942;4.026;2023-04-10T09:48:04;14.80;99.90
31133;DHT22;17779;50.942;4.026;2023-04-10T09:50:35;15.10;99.90
31133;DHT22;17779;50.942;4.026;2023-04-10T09:53:01;15.00;99.90
31133;DHT22;17779;50.942;4.026;2023-04-10T09:55:27;15.20;99.90
31133;DHT22;17779;50.942;4.026;2023-04-10T09:57:53;15.30;99.90
31133;DHT22;17779;50.942;4.026;2023-04-10T10:00:19;15.60;99.90
31133;DHT22;17779;50.942;4.026;2023-04-10T10:02:45;15.80;99.90
31133;DHT22;17779;50.942;4.026;2023-04-10T10:05:12;15.80;99.90
31133;DHT22;17779;50.942;4.026;2023-04-10T10:07:38;15.80;99.90
31133;DHT22;17779;50.942;4.026;2023-04-10T10:10:07;15.70;99.90
31133;DHT22;17779;50.942;4.026;2023-04-10T10:12:46;15.90;99.90
31133;DHT22;17779;50.942;4.026;2023-04-10T10:15:22;15.90;99.90
31133;DHT22;17779;50.942;4.026;2023-04-10T10:20:19;16.20;99.90
31133;DHT22;17779;50.942;4.026;2023-04-10T10:22:48;16.30;99.90
31133;DHT22;17779;50.942;4.026;2023-04-10T10:25:16;16.30;99.90
31133;DHT22;17779;50.942;4.026;2023-04-10T10:27:43;16.20;99.90
31133;DHT22;17779;50.942;4.026;2023-04-10T10:30:11;16.30;99.90
31133;DHT22;17779;50.942;4.026;2023-04-10T10:32:38;16.30;99.90
31133;DHT22;17779;50.942;4.026;2023-04-10T10:35:04;16.50;99.90
31133;DHT22;17779;50.942;4.026;2023-04-10T10:37:34;16.60;99.90
31133;DHT22;17779;50.942;4.026;2023-04-10T10:43:23;16.40;99.90
31133;DHT22;17779;50.942;4.026;2023-04-10T10:46:06;16.70;99.90
31133;DHT22;17779;50.942;4.026;2023-04-10T10:48:33;16.80;99.90
31133;DHT22;17779;50.942;4.026;2023-04-10T10:50:59;16.90;99.90
31133;DHT22;17779;50.942;4.026;2023-04-10T10:58:54;16.50;99.90
31133;DHT22;17779;50.942;4.026;2023-04-10T11:01:22;16.60;99.90
31133;DHT22;17779;50.942;4.026;2023-04-10T11:03:48;16.60;99.90
31133;DHT22;17779;50.942;4.026;2023-04-10T11:06:16;16.60;99.90
31133;DHT22;17779;50.942;4.026;2023-04-10T11:11:25;16.50;99.90
31133;DHT22;17779;50.942;4.026;2023-04-10T11:16:18;16.60;99.90
31133;DHT22;17779;50.942;4.026;2023-04-10T11:21:17;16.60;99.90
31133;DHT22;17779;50.942;4.026;2023-04-10T11:29:01;16.70;99.90
31133;DHT22;17779;50.942;4.026;2023-04-10T11:31:27;16.70;99.90
31133;DHT22;17779;50.942;4.026;2023-04-10T11:36:23;16.50;99.90
31133;DHT22;17779;50.942;4.026;2023-04-10T11:39:00;16.50;99.90
31133;DHT22;17779;50.942;4.026;2023-04-10T11:41:40;16.50;99.90
31133;DHT22;17779;50.942;4.026;2023-04-10T11:44:29;16.40;99.90
31133;DHT22;17779;50.942;4.026;2023-04-10T11:46:56;16.30;99.90
31133;DHT22;17779;50.942;4.026;2023-04-10T11:49:25;16.20;99.90
31133;DHT22;17779;50.942;4.026;2023-04-10T11:51:51;16.10;99.90
31133;DHT22;17779;50.942;4.026;2023-04-10T11:54:21;16.10;99.90
31133;DHT22;17779;50.942;4.026;2023-04-10T11:57:04;16.10;99.90
31133;DHT22;17779;50.942;4.026;2023-04-10T11:59:32;16.00;99.90
31133;DHT22;17779;50.942;4.026;2023-04-10T12:04:30;15.80;99.90
31133;DHT22;17779;50.942;4.026;2023-04-10T12:06:56;15.60;99.90
31133;DHT22;17779;50.942;4.026;2023-04-10T12:09:22;15.50;99.90
31133;DHT22;17779;50.942;4.026;2023-04-10T12:11:59;15.40;99.90
31133;DHT22;17779;50.942;4.026;2023-04-10T12:14:36;15.30;99.90
31133;DHT22;17779;50.942;4.026;2023-04-10T12:17:03;15.20;99.90
31133;DHT22;17779;50.942;4.026;2023-04-10T12:19:33;15.20;99.90
31133;DHT22;17779;50.942;4.026;2023-04-10T12:21:59;15.00;99.90
31133;DHT22;17779;50.942;4.026;2023-04-10T12:27:15;14.90;99.90
31133;DHT22;17779;50.942;4.026;2023-04-10T12:29:47;14.90;99.90
31133;DHT22;17779;50.942;4.026;2023-04-10T12:32:13;15.00;99.90
31133;DHT22;17779;50.942;4.026;2023-04-10T12:34:39;15.10;99.90
31133;DHT22;17779;50.942;4.026;2023-04-10T12:37:05;15.10;99.90
31133;DHT22;17779;50.942;4.026;2023-04-10T12:39:31;15.20;99.90
31133;DHT22;17779;50.942;4.026;2023-04-10T12:42:18;15.20;99.90
31133;DHT22;17779;50.942;4.026;2023-04-10T12:44:56;15.10;99.90
31133;DHT22;17779;50.942;4.026;2023-04-10T12:47:22;15.00;99.90
31133;DHT22;17779;50.942;4.026;2023-04-10T12:50:07;15.00;99.90
31133;DHT22;17779;50.942;4.026;2023-04-10T12:52:35;14.80;99.90
31133;DHT22;17779;50.942;4.026;2023-04-10T12:55:19;14.70;99.90
31133;DHT22;17779;50.942;4.026;2023-04-10T12:57:47;14.60;99.90
31133;DHT22;17779;50.942;4.026;2023-04-10T13:00:15;14.60;99.90
31133;DHT22;17779;50.942;4.026;2023-04-10T13:02:41;14.60;99.90
31133;DHT22;17779;50.942;4.026;2023-04-10T13:05:08;14.60;99.90
31133;DHT22;17779;50.942;4.026;2023-04-10T13:07:35;14.60;99.90
31133;DHT22;17779;50.942;4.026;2023-04-10T13:10:02;14.70;99.90
31133;DHT22;17779;50.942;4.026;2023-04-10T13:12:28;14.80;99.90
31133;DHT22;17779;50.942;4.026;2023-04-10T13:14:55;15.00;99.90
31133;DHT22;17779;50.942;4.026;2023-04-10T13:17:22;15.20;99.90
31133;DHT22;17779;50.942;4.026;2023-04-10T13:19:48;15.40;99.90
31133;DHT22;17779;50.942;4.026;2023-04-10T13:22:14;15.50;99.90
31133;DHT22;17779;50.942;4.026;2023-04-10T13:24:41;15.60;99.90
31133;DHT22;17779;50.942;4.026;2023-04-10T13:27:07;15.80;99.90
31133;DHT22;17779;50.942;4.026;2023-04-10T13:29:34;16.00;99.90
31133;DHT22;17779;50.942;4.026;2023-04-10T13:32:00;16.10;99.90
31133;DHT22;17779;50.942;4.026;2023-04-10T13:34:28;16.20;99.90
31133;DHT22;17779;50.942;4.026;2023-04-10T13:36:53;16.30;99.90
31133;DHT22;17779;50.942;4.026;2023-04-10T13:39:19;16.50;99.90
31133;DHT22;17779;50.942;4.026;2023-04-10T13:41:45;16.50;99.90
31133;DHT22;17779;50.942;4.026;2023-04-10T13:44:11;16.60;99.90
31133;DHT22;17779;50.942;4.026;2023-04-10T13:46:36;16.60;99.90
31133;DHT22;17779;50.942;4.026;2023-04-10T13:49:02;16.60;99.90
31133;DHT22;17779;50.942;4.026;2023-04-10T13:51:28;16.50;99.90
31133;DHT22;17779;50.942;4.026;2023-04-10T13:53:54;16.60;99.90
31133;DHT22;17779;50.942;4.026;2023-04-10T13:56:23;16.70;99.90
31133;DHT22;17779;50.942;4.026;2023-04-10T13:58:49;16.70;99.90
31133;DHT22;17779;50.942;4.026;2023-04-10T14:01:14;16.70;99.90
31133;DHT22;17779;50.942;4.026;2023-04-10T14:03:40;16.60;99.90
31133;DHT22;17779;50.942;4.026;2023-04-10T14:06:06;16.50;99.90
31133;DHT22;17779;50.942;4.026;2023-04-10T14:08:32;16.20;99.90
31133;DHT22;17779;50.942;4.026;2023-04-10T14:10:57;16.10;99.90
31133;DHT22;17779;50.942;4.026;2023-04-10T14:13:23;15.90;99.90
31133;DHT22;17779;50.942;4.026;2023-04-10T14:15:49;15.90;99.90
31133;DHT22;17779;50.942;4.026;2023-04-10T14:18:18;15.90;99.90
31133;DHT22;17779;50.942;4.026;2023-04-10T14:20:44;16.00;99.90
31133;DHT22;17779;50.942;4.026;2023-04-10T14:23:09;16.00;99.90
31133;DHT22;17779;50.942;4.026;2023-04-10T14:25:45;16.00;99.90
31133;DHT22;17779;50.942;4.026;2023-04-10T14:28:10;15.80;99.90
31133;DHT22;17779;50.942;4.026;2023-04-10T14:30:46;15.50;99.90
31133;DHT22;17779;50.942;4.026;2023-04-10T14:33:16;15.20;99.90
31133;DHT22;17779;50.942;4.026;2023-04-10T14:35:42;15.10;99.90
31133;DHT22;17779;50.942;4.026;2023-04-10T14:38:08;14.70;99.90
31133;DHT22;17779;50.942;4.026;2023-04-10T14:40:35;14.20;99.90
31133;DHT22;17779;50.942;4.026;2023-04-10T14:43:00;13.90;99.90
31133;DHT22;17779;50.942;4.026;2023-04-10T14:45:26;13.90;99.90
31133;DHT22;17779;50.942;4.026;2023-04-10T14:47:53;13.80;99.90
31133;DHT22;17779;50.942;4.026;2023-04-10T14:50:19;13.90;99.90
31133;DHT22;17779;50.942;4.026;2023-04-10T14:52:44;14.00;99.90
31133;DHT22;17779;50.942;4.026;2023-04-10T14:55:10;14.10;99.90
31133;DHT22;17779;50.942;4.026;2023-04-10T14:57:36;14.20;99.90
31133;DHT22;17779;50.942;4.026;2023-04-10T15:00:03;14.10;99.90
31133;DHT22;17779;50.942;4.026;2023-04-10T15:02:28;14.00;99.90
31133;DHT22;17779;50.942;4.026;2023-04-10T15:04:55;13.90;99.90
31133;DHT22;17779;50.942;4.026;2023-04-10T15:07:29;13.90;99.90
31133;DHT22;17779;50.942;4.026;2023-04-10T15:09:56;13.70;99.90
31133;DHT22;17779;50.942;4.026;2023-04-10T15:12:22;13.70;99.90
31133;DHT22;17779;50.942;4.026;2023-04-10T15:14:49;13.60;99.90
31133;DHT22;17779;50.942;4.026;2023-04-10T15:17:15;13.50;99.90
31133;DHT22;17779;50.942;4.026;2023-04-10T15:19:42;13.30;99.90
31133;DHT22;17779;50.942;4.026;2023-04-10T15:22:08;13.20;99.90
31133;DHT22;17779;50.942;4.026;2023-04-10T15:24:33;13.20;99.90
31133;DHT22;17779;50.942;4.026;2023-04-10T15:26:59;13.00;99.90
31133;DHT22;17779;50.942;4.026;2023-04-10T15:29:26;12.90;99.90
31133;DHT22;17779;50.942;4.026;2023-04-10T15:31:52;12.80;99.90
31133;DHT22;17779;50.942;4.026;2023-04-10T15:34:17;12.60;99.90
31133;DHT22;17779;50.942;4.026;2023-04-10T15:36:43;12.60;99.90
31133;DHT22;17779;50.942;4.026;2023-04-10T15:39:09;12.60;99.90
31133;DHT22;17779;50.942;4.026;2023-04-10T15:41:36;12.50;99.90
31133;DHT22;17779;50.942;4.026;2023-04-10T15:44:01;12.40;99.90
31133;DHT22;17779;50.942;4.026;2023-04-10T15:46:27;12.40;99.90
31133;DHT22;17779;50.942;4.026;2023-04-10T15:48:59;12.30;99.90
31133;DHT22;17779;50.942;4.026;2023-04-10T15:51:25;12.30;99.90
31133;DHT22;17779;50.942;4.026;2023-04-10T15:53:52;12.40;99.90
31133;DHT22;17779;50.942;4.026;2023-04-10T15:56:18;12.40;99.90
31133;DHT22;17779;50.942;4.026;2023-04-10T15:58:44;12.40;99.90
31133;DHT22;17779;50.942;4.026;2023-04-10T16:01:10;12.40;99.90
31133;DHT22;17779;50.942;4.026;2023-04-10T16:03:35;12.30;99.90
31133;DHT22;17779;50.942;4.026;2023-04-10T16:06:01;12.20;99.90
31133;DHT22;17779;50.942;4.026;2023-04-10T16:08:27;12.20;99.90
31133;DHT22;17779;50.942;4.026;2023-04-10T16:10:52;12.20;99.90
31133;DHT22;17779;50.942;4.026;2023-04-10T16:13:18;12.20;99.90
31133;DHT22;17779;50.942;4.026;2023-04-10T16:15:44;12.10;99.90
31133;DHT22;17779;50.942;4.026;2023-04-10T16:18:11;12.10;99.90
31133;DHT22;17779;50.942;4.026;2023-04-10T16:20:40;12.10;99.90